createdAt,value
2019-01-12T00:05:56.637Z,2.12
2019-01-12T00:10:58.773Z,2.17
2019-01-12T00:16:00.854Z,2.17
2019-01-12T00:21:03.464Z,2.18
2019-01-12T00:26:05.524Z,2.21
2019-01-12T00:31:07.625Z,2.15
2019-01-12T00:36:09.934Z,2.16
2019-01-12T00:41:13.668Z,2.11
2019-01-12T00:46:15.911Z,2.09
2019-01-12T00:51:17.909Z,2.12
2019-01-12T00:56:20.089Z,2.16
2019-01-12T01:01:22.173Z,2.18
2019-01-12T01:06:24.259Z,2.18
2019-01-12T01:11:26.321Z,2.21
2019-01-12T01:16:28.414Z,2.23
2019-01-12T01:21:30.553Z,2.22
2019-01-12T01:26:32.643Z,2.27
2019-01-12T01:31:35.077Z,2.28
2019-01-12T01:36:37.148Z,2.32
2019-01-12T01:41:39.188Z,2.37
2019-01-12T01:46:41.206Z,2.40
2019-01-12T01:51:43.668Z,2.45
2019-01-12T01:56:45.729Z,2.46
2019-01-12T02:01:47.770Z,2.51
2019-01-12T02:06:49.818Z,2.50
2019-01-12T02:11:51.957Z,2.50
2019-01-12T02:16:54.131Z,2.52
2019-01-12T02:21:56.170Z,2.53
2019-01-12T02:26:58.237Z,2.57
2019-01-12T02:32:00.227Z,2.60
2019-01-12T02:37:02.344Z,2.55
2019-01-12T02:42:04.407Z,2.71
2019-01-12T02:47:06.401Z,2.69
2019-01-12T02:52:08.660Z,2.73
2019-01-12T02:57:10.700Z,2.73
2019-01-12T03:02:12.732Z,2.74
2019-01-12T03:07:14.806Z,2.74
2019-01-12T03:12:16.868Z,2.76
2019-01-12T03:17:18.963Z,2.76
2019-01-12T03:22:21.031Z,2.72
2019-01-12T03:27:23.126Z,2.73
2019-01-12T03:32:25.244Z,2.73
2019-01-12T03:37:27.308Z,2.75
2019-01-12T03:42:29.432Z,2.77
2019-01-12T03:47:31.537Z,2.80
2019-01-12T03:52:33.669Z,2.82
2019-01-12T03:57:35.692Z,2.84
2019-01-12T04:02:37.745Z,2.80
2019-01-12T04:07:40.009Z,2.79
2019-01-12T04:12:42.111Z,2.78
2019-01-12T04:17:44.245Z,2.79
2019-01-12T04:23:05.802Z,2.80
2019-01-12T04:28:08.022Z,2.86
2019-01-12T04:33:10.138Z,2.91
2019-01-12T04:38:12.218Z,2.99
2019-01-12T04:43:14.320Z,2.99
2019-01-12T04:48:16.385Z,2.98
2019-01-12T04:53:18.459Z,2.95
2019-01-12T04:58:20.505Z,2.96
2019-01-12T05:03:22.579Z,2.99
2019-01-12T05:08:24.651Z,2.99
2019-01-12T05:13:26.722Z,3.02
2019-01-12T05:18:28.818Z,3.00
2019-01-12T05:23:30.859Z,3.00
2019-01-12T05:28:32.896Z,3.05
2019-01-12T05:33:35.175Z,3.08
2019-01-12T05:38:37.220Z,3.18
2019-01-12T05:43:39.284Z,3.22
2019-01-12T05:48:41.409Z,3.26
2019-01-12T05:53:43.490Z,3.32
2019-01-12T05:58:45.559Z,3.32
2019-01-12T06:03:47.645Z,3.34
2019-01-12T06:08:49.660Z,3.37
2019-01-12T06:13:51.695Z,3.44
2019-01-12T06:18:54.195Z,3.45
2019-01-12T06:23:56.302Z,3.50
2019-01-12T06:28:58.579Z,3.53
2019-01-12T06:34:00.630Z,3.52
2019-01-12T06:39:24.766Z,3.51
2019-01-12T06:44:26.788Z,3.47
2019-01-12T06:49:28.859Z,3.44
2019-01-12T06:54:30.961Z,3.41
2019-01-12T06:59:34.289Z,3.42
2019-01-12T07:04:37.008Z,3.42
2019-01-12T07:09:39.324Z,3.36
2019-01-12T07:14:41.378Z,3.28
2019-01-12T07:19:43.766Z,3.25
2019-01-12T07:24:45.922Z,3.26
2019-01-12T07:29:48.036Z,3.24
2019-01-12T07:34:50.147Z,3.34
2019-01-12T07:39:52.499Z,3.51
2019-01-12T07:44:54.908Z,3.61
2019-01-12T07:49:57.036Z,3.77
2019-01-12T07:54:59.178Z,3.88
2019-01-12T08:00:02.259Z,3.91
2019-01-12T08:05:06.877Z,4.06
2019-01-12T08:10:12.479Z,3.98
2019-01-12T08:15:36.182Z,4.05
2019-01-12T08:20:38.317Z,3.98
2019-01-12T08:25:40.737Z,4.02
2019-01-12T08:30:42.781Z,4.01
2019-01-12T08:35:44.856Z,4.04
2019-01-12T08:40:46.949Z,4.04
2019-01-12T08:45:49.390Z,4.12
2019-01-12T08:50:51.837Z,4.13
2019-01-12T08:55:53.924Z,4.04
2019-01-12T09:00:56.050Z,3.98
2019-01-12T09:05:58.170Z,4.07
2019-01-12T09:11:00.557Z,4.06
2019-01-12T09:16:02.696Z,4.14
2019-01-12T09:21:05.098Z,4.36
2019-01-12T09:26:07.122Z,4.57
2019-01-12T09:31:09.587Z,4.78
2019-01-12T09:36:11.809Z,4.70
2019-01-12T09:41:16.570Z,4.76
2019-01-12T09:46:19.923Z,4.92
2019-01-12T09:51:22.248Z,4.99
2019-01-12T09:56:24.431Z,4.89
2019-01-12T10:01:26.905Z,4.95
2019-01-12T10:06:29.273Z,5.04
2019-01-12T10:11:33.613Z,5.01
2019-01-12T10:16:35.647Z,5.05
2019-01-12T10:21:37.987Z,5.01
2019-01-12T10:26:40.034Z,5.09
2019-01-12T10:31:42.180Z,5.03
2019-01-12T10:36:44.282Z,4.97
2019-01-12T10:41:46.452Z,4.99
2019-01-12T10:46:48.625Z,5.05
2019-01-12T10:51:50.837Z,5.00
2019-01-12T10:56:52.883Z,5.00
2019-01-12T11:01:54.947Z,5.01
2019-01-12T11:06:57.093Z,4.91
2019-01-12T11:11:59.137Z,4.98
2019-01-12T11:17:01.156Z,4.95
2019-01-12T11:22:03.441Z,4.93
2019-01-12T11:27:12.066Z,4.90
2019-01-12T11:32:09.584Z,4.93
2019-01-12T11:37:11.692Z,4.98
2019-01-12T11:42:13.807Z,5.13
2019-01-12T11:47:16.172Z,5.11
2019-01-12T11:52:18.163Z,4.99
2019-01-12T11:57:20.218Z,4.95
2019-01-12T12:02:22.608Z,4.89
2019-01-12T12:07:24.944Z,4.86
2019-01-12T12:12:27.153Z,4.90
2019-01-12T12:17:29.511Z,4.86
2019-01-12T12:22:31.578Z,4.86
2019-01-12T12:27:34.199Z,4.90
2019-01-12T12:32:36.271Z,4.92
2019-01-12T12:37:38.377Z,4.99
2019-01-12T12:42:40.496Z,5.06
2019-01-12T12:47:42.457Z,4.94
2019-01-12T12:52:44.726Z,4.95
2019-01-12T12:57:46.795Z,4.85
2019-01-12T13:02:48.908Z,4.88
2019-01-12T13:07:55.172Z,4.86
2019-01-12T13:12:57.714Z,4.89
2019-01-12T13:18:00.495Z,4.82
2019-01-12T13:23:02.721Z,4.85
2019-01-12T13:28:05.116Z,4.84
2019-01-12T13:33:49.524Z,4.81
2019-01-12T13:38:51.709Z,4.81
2019-01-12T13:43:53.916Z,4.93
2019-01-12T13:49:18.805Z,5.03
2019-01-12T14:00:52.255Z,5.02
2019-01-12T14:07:01.932Z,4.95
2019-01-12T14:17:48.750Z,4.82
2019-01-12T14:22:51.475Z,4.67
2019-01-12T14:27:55.182Z,4.61
2019-01-12T14:38:34.672Z,4.62
2019-01-12T14:49:41.263Z,4.53
2019-01-12T14:54:47.800Z,4.47
2019-01-12T14:59:51.554Z,4.51
2019-01-12T15:04:53.663Z,4.49
2019-01-12T15:10:17.294Z,4.51
2019-01-12T15:15:19.357Z,4.54
2019-01-12T15:20:23.535Z,4.53
2019-01-12T15:25:25.796Z,4.51
2019-01-12T15:30:48.193Z,4.49
2019-01-12T15:35:51.372Z,4.49
2019-01-12T15:41:47.197Z,4.51
2019-01-12T15:46:24.028Z,4.48
2019-01-12T15:52:10.232Z,4.50
2019-01-12T16:02:11.874Z,4.53
2019-01-12T16:12:30.350Z,4.60
2019-01-12T16:17:32.514Z,4.62
2019-01-12T16:22:34.647Z,4.64
2019-01-12T16:27:36.657Z,4.63
2019-01-12T16:32:38.683Z,4.59
2019-01-12T16:43:10.631Z,4.57
2019-01-12T16:48:12.660Z,4.61
2019-01-12T16:53:14.714Z,4.59
2019-01-12T16:58:30.391Z,4.54
2019-01-12T17:03:28.078Z,4.49
2019-01-12T17:08:30.152Z,4.45
2019-01-12T17:13:32.347Z,4.41
2019-01-12T17:18:34.717Z,4.40
2019-01-12T17:23:36.911Z,4.42
2019-01-12T17:28:38.964Z,4.39
2019-01-12T17:33:41.127Z,4.40
2019-01-12T17:38:43.086Z,4.39
2019-01-12T17:43:45.123Z,4.45
2019-01-12T17:48:47.140Z,4.73
2019-01-12T17:53:49.929Z,4.73
2019-01-12T17:58:52.082Z,4.57
2019-01-12T18:03:54.136Z,4.43
2019-01-12T18:08:56.221Z,4.38
2019-01-12T18:13:58.364Z,4.40
2019-01-12T18:19:00.407Z,4.35
2019-01-12T18:24:02.732Z,4.36
2019-01-12T18:29:05.166Z,4.36
2019-01-12T18:34:07.231Z,4.33
2019-01-12T18:39:10.094Z,4.35
2019-01-12T18:44:12.699Z,4.36
2019-01-12T18:49:14.884Z,4.36
2019-01-12T18:54:17.099Z,4.41
2019-01-12T18:59:19.178Z,4.47
2019-01-12T19:04:21.258Z,4.47
2019-01-12T19:09:42.800Z,4.51
2019-01-12T19:14:45.180Z,4.56
2019-01-12T19:19:47.465Z,4.61
2019-01-12T19:24:49.499Z,4.60
2019-01-12T19:29:51.549Z,4.58
2019-01-12T19:34:53.584Z,4.58
2019-01-12T19:39:55.612Z,4.61
2019-01-12T19:44:57.791Z,4.59
2019-01-12T19:49:59.945Z,4.57
2019-01-12T19:55:02.014Z,4.56
2019-01-12T20:00:25.886Z,4.58
2019-01-12T20:05:27.934Z,4.62
2019-01-12T20:10:29.989Z,4.57
2019-01-12T20:15:32.054Z,4.58
2019-01-12T20:20:34.102Z,4.61
2019-01-12T20:25:36.157Z,4.57
2019-01-12T20:31:17.127Z,4.52
2019-01-12T20:36:58.318Z,4.53
2019-01-12T20:42:39.329Z,4.51
2019-01-12T20:48:20.488Z,4.51
2019-01-12T20:53:49.567Z,4.59
2019-01-12T20:59:30.500Z,4.65
2019-01-12T21:05:11.708Z,4.70
2019-01-12T21:10:46.754Z,4.88
2019-01-12T21:15:54.699Z,5.01
2019-01-12T21:20:57.044Z,4.98
2019-01-12T21:25:59.158Z,5.03
2019-01-12T21:31:01.243Z,5.01
2019-01-12T21:36:03.362Z,4.92
2019-01-12T21:41:05.377Z,4.96
2019-01-12T21:46:07.502Z,4.97
2019-01-12T21:51:09.597Z,4.99
2019-01-12T21:56:11.679Z,4.98
2019-01-12T22:01:13.720Z,4.93
2019-01-12T22:06:15.777Z,4.89
2019-01-12T22:11:17.889Z,4.93
2019-01-12T22:16:20.132Z,4.92
2019-01-12T22:21:22.159Z,4.89
2019-01-12T22:26:24.779Z,4.98
2019-01-12T22:31:26.941Z,5.18
2019-01-12T22:36:29.112Z,5.36
2019-01-12T22:41:31.497Z,5.35
2019-01-12T22:46:33.627Z,5.27
2019-01-12T22:51:35.705Z,5.27
2019-01-12T22:56:38.028Z,5.16
2019-01-12T23:02:00.680Z,5.36
2019-01-12T23:07:24.591Z,5.40
2019-01-12T23:12:26.641Z,5.41
2019-01-12T23:17:28.660Z,5.47
2019-01-12T23:22:30.772Z,5.44
2019-01-12T23:27:32.864Z,5.43
2019-01-12T23:32:34.960Z,5.41
2019-01-12T23:37:37.155Z,5.36
2019-01-12T23:42:39.274Z,5.42
2019-01-12T23:47:41.577Z,5.50
2019-01-12T23:52:43.785Z,5.56
2019-01-12T23:57:45.843Z,5.46
